createdAt,value
2018-04-22T00:01:45.155Z,99937.23
2018-04-22T00:04:15.767Z,99936.26
2018-04-22T00:06:46.229Z,99941.92
2018-04-22T00:09:16.939Z,99936.34
2018-04-22T00:11:47.226Z,99935.33
2018-04-22T00:14:20.111Z,99934.42
2018-04-22T00:16:50.692Z,99923.36
2018-04-22T00:19:23.845Z,99931.34
2018-04-22T00:21:54.600Z,99921.07
2018-04-22T00:24:25.052Z,99921.38
2018-04-22T00:27:02.494Z,99916.73
2018-04-22T00:29:36.346Z,99912.44
2018-04-22T00:32:07.248Z,99910.04
2018-04-22T00:34:38.775Z,99909.13
2018-04-22T00:37:09.331Z,99913.50
2018-04-22T00:39:40.310Z,99902.41
2018-04-22T00:42:13.451Z,99902.30
2018-04-22T00:44:45.366Z,99900.45
2018-04-22T00:47:16.024Z,99897.85
2018-04-22T00:49:46.429Z,99893.31
2018-04-22T00:52:17.187Z,99892.97
2018-04-22T00:54:47.672Z,99890.19
2018-04-22T00:57:18.367Z,99886.09
2018-04-22T00:59:48.762Z,99890.15
2018-04-22T01:02:20.112Z,99883.76
2018-04-22T01:04:57.363Z,99876.73
2018-04-22T01:07:27.893Z,99877.39
2018-04-22T01:09:58.585Z,99872.68
2018-04-22T01:12:29.680Z,99872.58
2018-04-22T01:15:00.159Z,99870.15
2018-04-22T01:17:33.760Z,99866.09
2018-04-22T01:20:04.230Z,100043.80
2018-04-22T01:22:34.501Z,99872.44
2018-04-22T01:25:06.843Z,99872.47
2018-04-22T01:27:37.920Z,99868.34
2018-04-22T01:30:08.843Z,99870.13
2018-04-22T01:32:40.242Z,99868.02
2018-04-22T01:35:12.265Z,99866.86
2018-04-22T01:37:42.749Z,99870.41
2018-04-22T01:40:13.265Z,99874.33
2018-04-22T01:42:44.055Z,99869.03
2018-04-22T01:45:16.045Z,99869.70
2018-04-22T01:47:46.591Z,99865.91
2018-04-22T01:50:17.675Z,99869.31
2018-04-22T01:52:48.152Z,99869.25
2018-04-22T01:55:18.553Z,99870.42
2018-04-22T01:57:49.351Z,99874.67
2018-04-22T02:00:19.811Z,99873.50
2018-04-22T02:02:50.288Z,99874.14
2018-04-22T02:05:20.703Z,99872.36
2018-04-22T02:07:51.141Z,99864.10
2018-04-22T02:10:21.702Z,99859.30
2018-04-22T02:12:52.230Z,99860.32
2018-04-22T02:15:22.834Z,99854.45
2018-04-22T02:17:53.344Z,99855.13
2018-04-22T02:20:24.201Z,99851.80
2018-04-22T02:22:55.712Z,99850.04
2018-04-22T02:25:26.204Z,99847.80
2018-04-22T02:27:56.956Z,99844.25
2018-04-22T02:30:27.474Z,99844.41
2018-04-22T02:32:57.917Z,99846.03
2018-04-22T02:35:28.380Z,99841.06
2018-04-22T02:37:58.803Z,99839.97
2018-04-22T02:40:29.273Z,99832.80
2018-04-22T02:42:59.753Z,99829.16
2018-04-22T02:45:30.154Z,99832.29
2018-04-22T02:48:00.639Z,99838.61
2018-04-22T02:50:31.101Z,99837.30
2018-04-22T02:53:01.573Z,99837.16
2018-04-22T02:55:33.193Z,99830.64
2018-04-22T02:58:03.938Z,99830.06
2018-04-22T03:00:34.312Z,99831.99
2018-04-22T03:03:04.884Z,99826.30
2018-04-22T03:05:35.376Z,99825.39
2018-04-22T03:08:05.797Z,99822.61
2018-04-22T03:10:36.284Z,99821.11
2018-04-22T03:13:06.818Z,99815.70
2018-04-22T03:15:37.379Z,99814.81
2018-04-22T03:18:07.780Z,99820.08
2018-04-22T03:20:38.218Z,99817.90
2018-04-22T03:23:08.669Z,99817.08
2018-04-22T03:25:39.105Z,99813.45
2018-04-22T03:28:09.643Z,99812.78
2018-04-22T03:30:40.197Z,99809.49
2018-04-22T03:33:11.006Z,99814.56
2018-04-22T03:35:42.139Z,99809.38
2018-04-22T03:38:12.329Z,99809.78
2018-04-22T03:40:43.822Z,99805.03
2018-04-22T03:43:14.243Z,99806.58
2018-04-22T03:45:44.749Z,99823.56
2018-04-22T03:48:15.226Z,99805.56
2018-04-22T03:50:45.673Z,99810.16
2018-04-22T03:53:16.605Z,99817.42
2018-04-22T03:55:47.032Z,99808.13
2018-04-22T03:58:17.517Z,99807.62
2018-04-22T04:00:48.465Z,99802.45
2018-04-22T04:03:18.767Z,99799.72
2018-04-22T04:05:49.292Z,99797.48
2018-04-22T04:08:20.187Z,99802.45
2018-04-22T04:10:50.791Z,99795.37
2018-04-22T04:13:21.236Z,99784.59
2018-04-22T04:15:55.693Z,99788.53
2018-04-22T04:18:36.838Z,99781.20
2018-04-22T04:23:19.472Z,99778.38
2018-04-22T04:27:57.307Z,99783.55
2018-04-22T04:30:27.804Z,99786.50
2018-04-22T04:32:58.358Z,99784.20
2018-04-22T04:35:28.840Z,99785.17
2018-04-22T04:37:59.334Z,99781.70
2018-04-22T04:40:30.232Z,99784.18
2018-04-22T04:43:00.732Z,99783.78
2018-04-22T04:45:31.301Z,99779.84
2018-04-22T04:48:01.843Z,99780.58
2018-04-22T04:50:32.298Z,99775.81
2018-04-22T04:53:02.874Z,99776.42
2018-04-22T04:55:34.653Z,99777.19
2018-04-22T04:58:07.174Z,99782.77
2018-04-22T05:00:37.425Z,99785.75
2018-04-22T05:03:07.823Z,99778.70
2018-04-22T05:05:38.316Z,99780.22
2018-04-22T05:08:09.491Z,99791.61
2018-04-22T05:10:40.237Z,99796.44
2018-04-22T05:13:11.244Z,99797.11
2018-04-22T05:15:41.726Z,99792.55
2018-04-22T05:18:12.285Z,99792.63
2018-04-22T05:20:43.102Z,99786.52
2018-04-22T05:23:13.580Z,99786.86
2018-04-22T05:25:50.465Z,99781.75
2018-04-22T05:28:20.932Z,99790.59
2018-04-22T05:30:51.942Z,99796.38
2018-04-22T05:33:22.507Z,99790.36
2018-04-22T05:35:52.925Z,99789.57
2018-04-22T05:38:23.429Z,99787.03
2018-04-22T05:40:53.866Z,99786.16
2018-04-22T05:43:24.350Z,99787.70
2018-04-22T05:45:56.158Z,99785.86
2018-04-22T05:48:26.641Z,99781.62
2018-04-22T05:50:57.969Z,99783.62
2018-04-22T05:53:28.466Z,99783.86
2018-04-22T05:55:59.670Z,99786.95
2018-04-22T05:58:30.096Z,99791.17
2018-04-22T06:01:03.193Z,99785.13
2018-04-22T06:03:33.706Z,99781.58
2018-04-22T06:06:04.236Z,99788.70
2018-04-22T06:08:36.153Z,99777.08
2018-04-22T06:11:06.867Z,99781.08
2018-04-22T06:13:40.088Z,99781.90
2018-04-22T06:16:11.119Z,99776.07
2018-04-22T06:18:42.272Z,99775.73
2018-04-22T06:21:12.679Z,99775.31
2018-04-22T06:23:43.202Z,99773.08
2018-04-22T06:26:13.681Z,99773.33
2018-04-22T06:28:44.529Z,99761.19
2018-04-22T06:31:15.115Z,99768.39
2018-04-22T06:33:45.569Z,99768.27
2018-04-22T06:36:16.339Z,99768.25
2018-04-22T06:38:46.829Z,99761.30
2018-04-22T06:41:18.156Z,99771.98
2018-04-22T06:43:49.071Z,99770.62
2018-04-22T06:46:19.519Z,99773.17
2018-04-22T06:48:49.985Z,99775.67
2018-04-22T06:51:20.779Z,99776.88
2018-04-22T06:53:51.221Z,99774.83
2018-04-22T06:56:21.673Z,99775.89
2018-04-22T06:58:53.226Z,99782.27
2018-04-22T07:01:23.677Z,99778.52
2018-04-22T07:03:54.367Z,99770.33
2018-04-22T07:06:24.878Z,99774.54
2018-04-22T07:08:55.347Z,99780.66
2018-04-22T07:11:27.165Z,99768.33
2018-04-22T07:13:57.672Z,99773.20
2018-04-22T07:16:28.156Z,99771.17
2018-04-22T07:18:59.225Z,99767.86
2018-04-22T07:21:29.692Z,99765.04
2018-04-22T07:24:00.197Z,99775.38
2018-04-22T07:26:33.539Z,99768.03
2018-04-22T07:29:04.078Z,99775.29
2018-04-22T07:31:34.584Z,99773.02
2018-04-22T07:34:05.302Z,99772.20
2018-04-22T07:36:38.902Z,99771.37
2018-04-22T07:39:09.401Z,99773.83
2018-04-22T07:41:40.218Z,99777.85
2018-04-22T07:44:11.020Z,99775.50
2018-04-22T07:46:41.491Z,99771.59
2018-04-22T07:49:12.008Z,99771.23
2018-04-22T07:51:42.495Z,99770.66
2018-04-22T07:54:13.070Z,99776.84
2018-04-22T07:56:43.711Z,99774.68
2018-04-22T07:59:14.236Z,99772.58
2018-04-22T08:01:44.737Z,99779.56
2018-04-22T08:04:17.906Z,99774.92
2018-04-22T08:06:48.571Z,99769.95
2018-04-22T08:09:19.281Z,99770.00
2018-04-22T08:11:50.465Z,99766.29
2018-04-22T08:14:21.013Z,99768.55
2018-04-22T08:16:51.781Z,99773.90
2018-04-22T08:19:22.296Z,99777.75
2018-04-22T08:21:54.969Z,99776.73
2018-04-22T08:24:25.835Z,99772.63
2018-04-22T08:26:58.225Z,99767.13
2018-04-22T08:29:30.623Z,99775.81
2018-04-22T08:32:01.212Z,99769.28
2018-04-22T08:34:31.777Z,99772.42
2018-04-22T08:37:02.276Z,99765.07
2018-04-22T08:39:32.836Z,99764.25
2018-04-22T08:42:03.810Z,99759.18
2018-04-22T08:44:34.312Z,99762.99
2018-04-22T08:47:04.788Z,99755.70
2018-04-22T08:49:35.231Z,99759.77
2018-04-22T08:52:08.386Z,99764.89
2018-04-22T08:54:38.952Z,99755.50
2018-04-22T08:57:12.143Z,99749.87
2018-04-22T08:59:44.553Z,99754.49
2018-04-22T09:02:16.960Z,99754.61
2018-04-22T09:04:47.421Z,99748.46
2018-04-22T09:07:19.788Z,99747.14
2018-04-22T09:09:54.364Z,99741.55
2018-04-22T09:12:26.748Z,99745.62
2018-04-22T09:14:59.536Z,99753.58
2018-04-22T09:17:30.153Z,99749.52
2018-04-22T09:20:03.390Z,99743.06
2018-04-22T09:22:35.948Z,99747.69
2018-04-22T09:25:08.364Z,99750.09
2018-04-22T09:27:41.578Z,99739.30
2018-04-22T09:30:16.062Z,99741.36
2018-04-22T09:32:48.527Z,99731.58
2018-04-22T09:35:20.923Z,99734.16
2018-04-22T09:37:53.398Z,99735.87
2018-04-22T09:40:25.831Z,99731.50
2018-04-22T09:42:58.631Z,99726.58
2018-04-22T09:45:31.076Z,99722.47
2018-04-22T09:48:05.291Z,99720.10
2018-04-22T09:50:37.729Z,99719.14
2018-04-22T09:53:10.166Z,99721.09
2018-04-22T09:55:42.962Z,99717.20
2018-04-22T09:58:15.665Z,99710.71
2018-04-22T10:00:47.984Z,99705.61
2018-04-22T10:03:22.079Z,99705.32
2018-04-22T10:05:57.244Z,99707.38
2018-04-22T10:08:29.875Z,99708.38
2018-04-22T10:11:02.329Z,99698.91
2018-04-22T10:13:32.868Z,99701.13
2018-04-22T10:16:03.750Z,99705.63
2018-04-22T10:18:36.157Z,99702.65
2018-04-22T10:21:08.797Z,99704.94
2018-04-22T10:23:42.511Z,99697.30
2018-04-22T10:26:15.609Z,99687.94
2018-04-22T10:28:48.804Z,99682.66
2018-04-22T10:31:19.586Z,99683.53
2018-04-22T10:33:52.075Z,99675.75
2018-04-22T10:36:24.584Z,99670.77
2018-04-22T10:38:55.116Z,99666.61
2018-04-22T10:41:25.700Z,99666.66
2018-04-22T10:43:56.562Z,99666.68
2018-04-22T10:46:29.749Z,99673.52
2018-04-22T10:49:03.307Z,99660.59
2018-04-22T10:51:36.515Z,99657.92
2018-04-22T10:54:07.403Z,99651.81
2018-04-22T10:56:40.772Z,99655.07
2018-04-22T10:59:14.133Z,99647.38
2018-04-22T11:01:46.706Z,99647.66
2018-04-22T11:04:17.292Z,99647.61
2018-04-22T11:06:50.162Z,99650.61
2018-04-22T11:09:23.394Z,99650.23
2018-04-22T11:11:54.653Z,99643.91
2018-04-22T11:14:27.167Z,99643.59
2018-04-22T11:17:01.762Z,99641.06
2018-04-22T11:19:34.189Z,99633.89
2018-04-22T11:22:07.542Z,99636.33
2018-04-22T11:24:40.873Z,99630.59
2018-04-22T11:27:14.299Z,99636.52
2018-04-22T11:29:46.685Z,99629.54
2018-04-22T11:32:19.860Z,99628.64
2018-04-22T11:34:53.373Z,99629.06
2018-04-22T11:37:25.811Z,99623.71
2018-04-22T11:39:58.914Z,99620.83
2018-04-22T11:42:31.565Z,99613.41
2018-04-22T11:45:05.436Z,99615.69
2018-04-22T11:47:38.881Z,99613.95
2018-04-22T11:50:11.383Z,99615.37
2018-04-22T11:52:44.922Z,99621.38
2018-04-22T11:55:17.308Z,99608.55
2018-04-22T11:57:50.013Z,99604.80
2018-04-22T12:00:22.476Z,99608.94
2018-04-22T12:02:56.345Z,99601.22
2018-04-22T12:05:29.193Z,99598.84
2018-04-22T12:08:03.201Z,99599.67
2018-04-22T12:10:35.764Z,99594.27
2018-04-22T12:13:09.219Z,99592.61
2018-04-22T12:15:42.381Z,99585.30
2018-04-22T12:18:15.765Z,99583.52
2018-04-22T12:20:46.385Z,99580.59
2018-04-22T12:23:19.565Z,99577.58
2018-04-22T12:25:53.155Z,99575.94
2018-04-22T12:28:26.143Z,99577.31
2018-04-22T12:30:59.085Z,99572.95
2018-04-22T12:33:32.630Z,99564.91
2018-04-22T12:36:03.357Z,99562.17
2018-04-22T12:38:33.813Z,99564.55
2018-04-22T12:41:06.273Z,99558.45
2018-04-22T12:43:38.643Z,99551.36
2018-04-22T12:46:09.482Z,99557.64
2018-04-22T12:48:40.016Z,99551.03
2018-04-22T12:51:12.496Z,99547.45
2018-04-22T12:53:43.118Z,99541.84
2018-04-22T12:56:15.463Z,99539.42
2018-04-22T12:58:46.096Z,99538.05
2018-04-22T13:01:16.533Z,99539.20
2018-04-22T13:03:47.305Z,99529.15
2018-04-22T13:06:17.730Z,99517.44
2018-04-22T13:08:48.335Z,99514.22
2018-04-22T13:11:19.182Z,99513.40
2018-04-22T13:13:49.756Z,99508.22
2018-04-22T13:16:20.241Z,99496.68
2018-04-22T13:18:50.976Z,99494.16
2018-04-22T13:21:21.497Z,99482.64
2018-04-22T13:23:52.347Z,99484.86
2018-04-22T13:26:24.279Z,99476.44
2018-04-22T13:28:55.554Z,99477.47
2018-04-22T13:31:26.079Z,99466.87
2018-04-22T13:33:56.880Z,99467.11
2018-04-22T13:36:27.450Z,99465.03
2018-04-22T13:38:58.149Z,99455.74
2018-04-22T13:41:29.949Z,99455.73
2018-04-22T13:44:01.015Z,99452.20
2018-04-22T13:46:31.663Z,99449.95
2018-04-22T13:49:02.370Z,99446.27
2018-04-22T13:51:33.169Z,99442.25
2018-04-22T13:54:05.706Z,99431.80
2018-04-22T13:56:36.213Z,99436.66
2018-04-22T13:59:06.855Z,99436.89
2018-04-22T14:01:37.405Z,99427.53
2018-04-22T14:04:07.936Z,99422.96
2018-04-22T14:06:39.876Z,99416.58
2018-04-22T14:09:10.426Z,99416.70
2018-04-22T14:11:41.065Z,99412.98
2018-04-22T14:14:11.924Z,99404.19
2018-04-22T14:16:42.449Z,99411.39
2018-04-22T14:19:12.996Z,99405.87
2018-04-22T14:21:44.175Z,99396.66
2018-04-22T14:24:14.648Z,99399.30
2018-04-22T14:26:45.088Z,99409.05
2018-04-22T14:29:15.666Z,99405.52
2018-04-22T14:31:46.139Z,99404.72
2018-04-22T14:34:16.779Z,99402.75
2018-04-22T14:36:47.343Z,99396.02
2018-04-22T14:39:17.823Z,99397.17
2018-04-22T14:41:48.326Z,99393.42
2018-04-22T14:46:30.611Z,99385.19
2018-04-22T14:49:07.151Z,99383.27
2018-04-22T14:51:38.115Z,99382.39
2018-04-22T14:54:08.663Z,99377.67
2018-04-22T14:56:39.562Z,99378.95
2018-04-22T14:59:10.063Z,99382.22
2018-04-22T15:01:40.519Z,99381.15
2018-04-22T15:04:12.001Z,99376.71
2018-04-22T15:06:43.217Z,99370.14
2018-04-22T15:09:13.850Z,99372.25
2018-04-22T15:11:44.347Z,99369.15
2018-04-22T15:14:15.254Z,99363.08
2018-04-22T15:16:45.775Z,99359.05
2018-04-22T15:19:16.340Z,99359.40
2018-04-22T15:21:47.439Z,99350.02
2018-04-22T15:24:17.911Z,99355.57
2018-04-22T15:26:49.356Z,99353.11
2018-04-22T15:29:20.159Z,99355.26
2018-04-22T15:31:51.375Z,99354.88
2018-04-22T15:34:22.484Z,99349.60
2018-04-22T15:36:52.960Z,99350.03
2018-04-22T15:39:23.458Z,99345.25
2018-04-22T15:41:54.730Z,99340.97
2018-04-22T15:44:25.439Z,99340.14
2018-04-22T15:46:55.699Z,99344.29
2018-04-22T15:49:26.647Z,99339.61
2018-04-22T15:51:57.226Z,99340.08
2018-04-22T15:54:27.907Z,99338.87
2018-04-22T15:57:00.577Z,99347.02
2018-04-22T15:59:31.021Z,99334.14
2018-04-22T16:02:02.013Z,99335.78
2018-04-22T16:04:32.951Z,99331.19
2018-04-22T16:07:03.595Z,99321.55
2018-04-22T16:09:35.911Z,99331.50
2018-04-22T16:12:07.480Z,99329.17
2018-04-22T16:14:38.077Z,99327.34
2018-04-22T16:17:09.012Z,99333.17
2018-04-22T16:19:39.885Z,99329.66
2018-04-22T16:22:10.344Z,99328.26
2018-04-22T16:24:40.881Z,99330.31
2018-04-22T16:27:14.015Z,99335.64
2018-04-22T16:29:44.738Z,99328.83
2018-04-22T16:32:15.257Z,99327.11
2018-04-22T16:34:53.317Z,99326.78
2018-04-22T16:37:25.599Z,99320.27
2018-04-22T16:39:56.954Z,99319.33
2018-04-22T16:42:28.392Z,99322.56
2018-04-22T16:45:00.707Z,99323.52
2018-04-22T16:47:32.353Z,99326.09
2018-04-22T16:50:03.719Z,99325.50
2018-04-22T16:52:35.943Z,99328.13
2018-04-22T16:55:08.587Z,99325.34
2018-04-22T16:57:39.965Z,99323.80
2018-04-22T17:00:10.497Z,99325.59
2018-04-22T17:02:42.004Z,99325.48
2018-04-22T17:05:12.526Z,99326.66
2018-04-22T17:07:43.963Z,99320.09
2018-04-22T17:10:15.336Z,99327.76
2018-04-22T17:12:46.896Z,99329.64
2018-04-22T17:15:18.222Z,99329.72
2018-04-22T17:17:48.770Z,99327.64
2018-04-22T17:20:21.050Z,99325.92
2018-04-22T17:22:51.657Z,99328.73
2018-04-22T17:25:22.131Z,99324.77
2018-04-22T17:27:54.679Z,99330.66
2018-04-22T17:30:25.600Z,99323.22
2018-04-22T17:32:57.146Z,99330.14
2018-04-22T17:35:29.370Z,99329.38
2018-04-22T17:38:01.657Z,99336.70
2018-04-22T17:40:32.183Z,99339.83
2018-04-22T17:43:02.753Z,99343.02
2018-04-22T17:45:33.602Z,99338.39
2018-04-22T17:48:04.987Z,99339.52
2018-04-22T17:50:35.524Z,99339.69
2018-04-22T17:53:07.787Z,99342.41
2018-04-22T17:55:38.390Z,99338.81
2018-04-22T17:58:09.793Z,99352.44
2018-04-22T18:00:40.277Z,99349.92
2018-04-22T18:03:10.763Z,99351.83
2018-04-22T18:05:41.451Z,99354.51
2018-04-22T18:08:12.540Z,99355.23
2018-04-22T18:10:43.360Z,99360.20
2018-04-22T18:13:16.640Z,99360.08
2018-04-22T18:15:47.209Z,99361.92
2018-04-22T18:18:19.446Z,99372.49
2018-04-22T18:20:50.801Z,99360.56
2018-04-22T18:23:22.325Z,99366.30
2018-04-22T18:25:54.699Z,99361.52
2018-04-22T18:28:25.615Z,99367.02
2018-04-22T18:30:57.121Z,99370.45
2018-04-22T18:33:29.388Z,99369.06
2018-04-22T18:35:59.824Z,99374.42
2018-04-22T18:38:31.292Z,99378.76
2018-04-22T18:41:02.809Z,99379.73
2018-04-22T18:43:34.229Z,99383.84
2018-04-22T18:46:06.488Z,99382.62
2018-04-22T18:48:37.830Z,99379.08
2018-04-22T18:51:09.179Z,99383.27
2018-04-22T18:53:40.591Z,99385.08
2018-04-22T18:56:12.251Z,99388.08
2018-04-22T18:58:43.703Z,99395.16
2018-04-22T19:01:15.225Z,99394.07
2018-04-22T19:03:46.910Z,99399.53
2018-04-22T19:06:18.329Z,99428.86
2018-04-22T19:08:49.715Z,99408.55
2018-04-22T19:11:21.526Z,99409.48
2018-04-22T19:13:52.916Z,99415.63
2018-04-22T19:16:24.473Z,99414.95
2018-04-22T19:18:55.821Z,99416.88
2018-04-22T19:21:27.191Z,99420.11
2018-04-22T19:24:00.144Z,99416.82
2018-04-22T19:26:31.524Z,99415.17
2018-04-22T19:29:02.909Z,99422.89
2018-04-22T19:31:35.145Z,99430.11
2018-04-22T19:34:06.570Z,99426.02
2018-04-22T19:36:39.218Z,99425.20
2018-04-22T19:39:10.640Z,99429.98
2018-04-22T19:41:41.946Z,99430.76
2018-04-22T19:44:13.644Z,99426.25
2018-04-22T19:46:44.976Z,99436.92
2018-04-22T19:49:16.393Z,99429.30
2018-04-22T19:51:48.175Z,99432.15
2018-04-22T19:54:20.438Z,99438.98
2018-04-22T19:56:52.110Z,99443.20
2018-04-22T19:59:23.466Z,99441.56
2018-04-22T20:01:55.044Z,99450.04
2018-04-22T20:04:26.674Z,99451.27
2018-04-22T20:06:57.967Z,99448.67
2018-04-22T20:09:29.583Z,99452.76
2018-04-22T20:12:01.045Z,99455.20
2018-04-22T20:14:32.445Z,99466.68
2018-04-22T20:17:06.155Z,99462.16
2018-04-22T20:19:37.830Z,99465.43
2018-04-22T20:22:09.236Z,99467.63
2018-04-22T20:24:41.349Z,99473.91
2018-04-22T20:27:12.651Z,99478.55
2018-04-22T20:29:43.979Z,99479.09
2018-04-22T20:32:16.503Z,99482.92
2018-04-22T20:34:48.103Z,99484.00
2018-04-22T20:37:20.027Z,99485.64
2018-04-22T20:39:51.392Z,99482.23
2018-04-22T20:42:22.705Z,99486.04
2018-04-22T20:44:55.420Z,99492.45
2018-04-22T20:47:26.816Z,99489.85
2018-04-22T20:49:58.137Z,99498.70
2018-04-22T20:52:30.746Z,99501.72
2018-04-22T20:55:02.171Z,99502.73
2018-04-22T20:57:33.551Z,99499.05
2018-04-22T21:00:07.699Z,99502.84
2018-04-22T21:02:38.842Z,99499.77
2018-04-22T21:05:10.347Z,99498.19
2018-04-22T21:07:41.775Z,99499.23
2018-04-22T21:10:13.152Z,99504.72
2018-04-22T21:12:45.443Z,99503.22
2018-04-22T21:15:17.541Z,99508.22
2018-04-22T21:17:48.873Z,99508.97
2018-04-22T21:20:20.199Z,99506.02
2018-04-22T21:22:52.941Z,99514.98
2018-04-22T21:25:24.280Z,99515.50
2018-04-22T21:27:55.679Z,99509.22
2018-04-22T21:30:27.501Z,99512.17
2018-04-22T21:32:58.843Z,99515.80
2018-04-22T21:35:31.343Z,99513.66
2018-04-22T21:38:03.694Z,99505.33
2018-04-22T21:40:34.208Z,99513.59
2018-04-22T21:43:05.985Z,99512.50
2018-04-22T21:45:37.334Z,99514.82
2018-04-22T21:48:08.897Z,99515.73
2018-04-22T21:50:40.279Z,99513.80
2018-04-22T21:53:12.470Z,99524.16
2018-04-22T21:55:44.798Z,99515.59
2018-04-22T21:58:16.844Z,99516.49
2018-04-22T22:00:49.529Z,99513.53
2018-04-22T22:03:21.714Z,99518.95
2018-04-22T22:05:53.845Z,99517.33
2018-04-22T22:08:26.087Z,99518.80
2018-04-22T22:10:56.693Z,99525.84
2018-04-22T22:13:29.827Z,99523.21
2018-04-22T22:16:00.398Z,99524.28
2018-04-22T22:18:31.270Z,99523.14
2018-04-22T22:21:03.449Z,99536.84
2018-04-22T22:23:34.787Z,99527.95
2018-04-22T22:26:05.302Z,99534.55
2018-04-22T22:28:35.717Z,99540.49
2018-04-22T22:31:07.097Z,99536.56
2018-04-22T22:33:39.349Z,99543.38
2018-04-22T22:36:10.619Z,99541.05
2018-04-22T22:38:41.148Z,99541.67
2018-04-22T22:41:11.666Z,99541.77
2018-04-22T22:43:42.167Z,99545.22
2018-04-22T22:46:13.944Z,99539.02
2018-04-22T22:48:44.398Z,99540.01
2018-04-22T22:51:15.743Z,99542.61
2018-04-22T22:53:46.300Z,99546.59
2018-04-22T22:56:18.505Z,99542.44
2018-04-22T22:58:48.993Z,99541.89
2018-04-22T23:01:19.535Z,99538.45
2018-04-22T23:03:49.978Z,99548.41
2018-04-22T23:06:20.540Z,99546.23
2018-04-22T23:08:51.024Z,99545.62
2018-04-22T23:11:23.361Z,99554.14
2018-04-22T23:13:53.827Z,99542.16
2018-04-22T23:16:24.431Z,99544.05
2018-04-22T23:18:55.455Z,99540.42
2018-04-22T23:21:25.990Z,99536.05
2018-04-22T23:23:56.441Z,99533.30
2018-04-22T23:26:27.343Z,99532.05
2018-04-22T23:28:57.788Z,99527.84
2018-04-22T23:31:28.217Z,99526.33
2018-04-22T23:33:59.055Z,99520.02
2018-04-22T23:36:29.512Z,99526.98
2018-04-22T23:39:01.821Z,99524.29
2018-04-22T23:41:32.640Z,99525.81
2018-04-22T23:44:03.064Z,99527.16
2018-04-22T23:46:33.729Z,99520.65
2018-04-22T23:49:04.253Z,99523.13
2018-04-22T23:51:35.899Z,99525.09
2018-04-22T23:54:06.662Z,99529.07
2018-04-22T23:56:37.103Z,99528.03
2018-04-22T23:59:08.077Z,99523.41
